sensor_id;sensor_type;location;lat;lon;timestamp;pressure;altitude;pressure_sealevel;temperature;humidity
45247;BME280;31529;51.158;7.354;2022-11-30T00:00:14;98385.88;;;9.53;89.79
45247;BME280;31529;51.158;7.354;2022-11-30T00:00:46;98389.31;;;9.54;89.91
45247;BME280;31529;51.158;7.354;2022-11-30T00:01:21;98381.31;;;9.54;89.18
45247;BME280;31529;51.158;7.354;2022-11-30T00:01:53;98380.53;;;9.53;89.21
45247;BME280;31529;51.158;7.354;2022-11-30T00:02:24;98385.88;;;9.53;89.21
45247;BME280;31529;51.158;7.354;2022-11-30T00:02:56;98384.00;;;9.54;89.38
45247;BME280;31529;51.158;7.354;2022-11-30T00:03:27;98377.06;;;9.53;88.96
45247;BME280;31529;51.158;7.354;2022-11-30T00:03:58;98385.88;;;9.53;89.44
45247;BME280;31529;51.158;7.354;2022-11-30T00:04:29;98377.88;;;9.53;89.21
45247;BME280;31529;51.158;7.354;2022-11-30T00:05:00;98376.53;;;9.51;89.38
45247;BME280;31529;51.158;7.354;2022-11-30T00:05:32;98381.06;;;9.50;89.36
45247;BME280;31529;51.158;7.354;2022-11-30T00:06:07;98378.38;;;9.50;88.96
45247;BME280;31529;51.158;7.354;2022-11-30T00:06:40;98379.47;;;9.49;89.73
45247;BME280;31529;51.158;7.354;2022-11-30T00:07:11;98380.53;;;9.48;89.82
45247;BME280;31529;51.158;7.354;2022-11-30T00:07:43;98376.28;;;9.47;89.87
45247;BME280;31529;51.158;7.354;2022-11-30T00:08:14;98380.81;;;9.47;89.05
45247;BME280;31529;51.158;7.354;2022-11-30T00:08:45;98378.94;;;9.47;89.42
45247;BME280;31529;51.158;7.354;2022-11-30T00:09:16;98377.31;;;9.46;89.58
45247;BME280;31529;51.158;7.354;2022-11-30T00:09:47;98378.16;;;9.47;89.17
45247;BME280;31529;51.158;7.354;2022-11-30T00:10:19;98375.50;;;9.47;89.67
45247;BME280;31529;51.158;7.354;2022-11-30T00:10:50;98381.06;;;9.45;89.15
45247;BME280;31529;51.158;7.354;2022-11-30T00:11:22;98375.75;;;9.45;89.70
45247;BME280;31529;51.158;7.354;2022-11-30T00:11:55;98374.94;;;9.45;89.28
45247;BME280;31529;51.158;7.354;2022-11-30T00:12:27;98369.63;;;9.45;89.95
45247;BME280;31529;51.158;7.354;2022-11-30T00:12:58;98377.63;;;9.45;89.65
45247;BME280;31529;51.158;7.354;2022-11-30T00:13:29;98374.94;;;9.45;89.69
45247;BME280;31529;51.158;7.354;2022-11-30T00:14:00;98373.34;;;9.44;89.70
45247;BME280;31529;51.158;7.354;2022-11-30T00:14:31;98376.00;;;9.44;89.82
45247;BME280;31529;51.158;7.354;2022-11-30T00:15:03;98372.28;;;9.45;89.51
45247;BME280;31529;51.158;7.354;2022-11-30T00:15:34;98373.34;;;9.44;89.53
45247;BME280;31529;51.158;7.354;2022-11-30T00:16:08;98377.63;;;9.45;90.19
45247;BME280;31529;51.158;7.354;2022-11-30T00:16:39;98378.66;;;9.44;89.68
45247;BME280;31529;51.158;7.354;2022-11-30T00:17:11;98373.34;;;9.44;89.82
45247;BME280;31529;51.158;7.354;2022-11-30T00:17:42;98377.63;;;9.45;89.68
45247;BME280;31529;51.158;7.354;2022-11-30T00:18:14;98374.13;;;9.44;89.82
45247;BME280;31529;51.158;7.354;2022-11-30T00:18:47;98373.34;;;9.44;90.10
45247;BME280;31529;51.158;7.354;2022-11-30T00:19:18;98369.88;;;9.43;89.72
45247;BME280;31529;51.158;7.354;2022-11-30T00:19:49;98371.47;;;9.44;89.85
45247;BME280;31529;51.158;7.354;2022-11-30T00:20:21;98369.63;;;9.45;89.61
45247;BME280;31529;51.158;7.354;2022-11-30T00:20:52;98370.69;;;9.44;89.33
45247;BME280;31529;51.158;7.354;2022-11-30T00:21:23;98363.47;;;9.44;89.71
45247;BME280;31529;51.158;7.354;2022-11-30T00:21:54;98369.63;;;9.45;89.71
45247;BME280;31529;51.158;7.354;2022-11-30T00:22:25;98369.63;;;9.45;89.59
45247;BME280;31529;51.158;7.354;2022-11-30T00:22:56;98369.63;;;9.45;90.15
45247;BME280;31529;51.158;7.354;2022-11-30T00:23:34;98369.63;;;9.45;89.73
45247;BME280;31529;51.158;7.354;2022-11-30T00:24:07;98374.94;;;9.45;90.02
45247;BME280;31529;51.158;7.354;2022-11-30T00:24:38;98369.63;;;9.45;89.68
45247;BME280;31529;51.158;7.354;2022-11-30T00:25:09;98370.41;;;9.45;89.26
45247;BME280;31529;51.158;7.354;2022-11-30T00:25:40;98374.66;;;9.46;89.91
45247;BME280;31529;51.158;7.354;2022-11-30T00:26:12;98373.06;;;9.45;89.31
45247;BME280;31529;51.158;7.354;2022-11-30T00:26:45;98369.63;;;9.45;89.80
45247;BME280;31529;51.158;7.354;2022-11-30T00:27:16;98368.53;;;9.46;89.39
45247;BME280;31529;51.158;7.354;2022-11-30T00:27:47;98370.41;;;9.45;90.12
45247;BME280;31529;51.158;7.354;2022-11-30T00:28:18;98373.06;;;9.45;89.70
45247;BME280;31529;51.158;7.354;2022-11-30T00:28:49;98369.63;;;9.45;90.29
45247;BME280;31529;51.158;7.354;2022-11-30T00:29:20;98373.06;;;9.45;89.72
45247;BME280;31529;51.158;7.354;2022-11-30T00:29:51;98373.88;;;9.46;89.93
45247;BME280;31529;51.158;7.354;2022-11-30T00:30:22;98370.41;;;9.45;89.42
45247;BME280;31529;51.158;7.354;2022-11-30T00:31:00;98376.53;;;9.46;90.24
45247;BME280;31529;51.158;7.354;2022-11-30T00:31:33;98367.75;;;9.45;89.54
45247;BME280;31529;51.158;7.354;2022-11-30T00:32:04;98372.28;;;9.45;89.90
45247;BME280;31529;51.158;7.354;2022-11-30T00:32:35;98370.41;;;9.45;89.81
45247;BME280;31529;51.158;7.354;2022-11-30T00:33:06;98371.22;;;9.46;89.36
45247;BME280;31529;51.158;7.354;2022-11-30T00:33:37;98373.06;;;9.45;89.61
45247;BME280;31529;51.158;7.354;2022-11-30T00:34:09;98365.09;;;9.45;89.42
45247;BME280;31529;51.158;7.354;2022-11-30T00:34:39;98376.53;;;9.46;89.92
45247;BME280;31529;51.158;7.354;2022-11-30T00:35:11;98369.63;;;9.45;89.76
45247;BME280;31529;51.158;7.354;2022-11-30T00:35:42;98369.63;;;9.45;90.13
45247;BME280;31529;51.158;7.354;2022-11-30T00:36:14;98369.63;;;9.45;89.50
45247;BME280;31529;51.158;7.354;2022-11-30T00:36:47;98378.16;;;9.47;89.68
45247;BME280;31529;51.158;7.354;2022-11-30T00:37:18;98376.53;;;9.46;89.79
45247;BME280;31529;51.158;7.354;2022-11-30T00:37:49;98377.31;;;9.46;90.15
45247;BME280;31529;51.158;7.354;2022-11-30T00:38:20;98369.63;;;9.45;90.00
45247;BME280;31529;51.158;7.354;2022-11-30T00:38:52;98369.34;;;9.46;89.63
45247;BME280;31529;51.158;7.354;2022-11-30T00:39:23;98373.63;;;9.47;89.82
45247;BME280;31529;51.158;7.354;2022-11-30T00:39:54;98372.00;;;9.46;90.05
45247;BME280;31529;51.158;7.354;2022-11-30T00:40:25;98371.22;;;9.46;90.34
45247;BME280;31529;51.158;7.354;2022-11-30T00:40:56;98379.19;;;9.46;90.45
45247;BME280;31529;51.158;7.354;2022-11-30T00:41:27;98370.41;;;9.45;90.06
45247;BME280;31529;51.158;7.354;2022-11-30T00:41:58;98371.22;;;9.46;90.33
45247;BME280;31529;51.158;7.354;2022-11-30T00:42:29;98379.19;;;9.46;89.46
45247;BME280;31529;51.158;7.354;2022-11-30T00:43:00;98374.66;;;9.46;90.25
45247;BME280;31529;51.158;7.354;2022-11-30T00:43:32;98376.53;;;9.46;90.28
45247;BME280;31529;51.158;7.354;2022-11-30T00:44:03;98381.06;;;9.45;89.67
45247;BME280;31529;51.158;7.354;2022-11-30T00:44:34;98370.41;;;9.45;90.34
45247;BME280;31529;51.158;7.354;2022-11-30T00:45:05;98376.53;;;9.46;90.06
45247;BME280;31529;51.158;7.354;2022-11-30T00:45:37;98366.97;;;9.45;90.07
45247;BME280;31529;51.158;7.354;2022-11-30T00:46:08;98366.97;;;9.45;90.01
45247;BME280;31529;51.158;7.354;2022-11-30T00:46:39;98366.97;;;9.45;90.06
45247;BME280;31529;51.158;7.354;2022-11-30T00:47:10;98369.63;;;9.45;90.16
45247;BME280;31529;51.158;7.354;2022-11-30T00:47:41;98377.63;;;9.45;89.91
45247;BME280;31529;51.158;7.354;2022-11-30T00:48:12;98369.63;;;9.45;89.50
45247;BME280;31529;51.158;7.354;2022-11-30T00:48:43;98373.06;;;9.45;90.55
45247;BME280;31529;51.158;7.354;2022-11-30T00:49:14;98375.75;;;9.45;90.45
45247;BME280;31529;51.158;7.354;2022-11-30T00:49:46;98372.28;;;9.45;90.19
45247;BME280;31529;51.158;7.354;2022-11-30T00:50:17;98370.41;;;9.45;90.29
45247;BME280;31529;51.158;7.354;2022-11-30T00:50:48;98376.53;;;9.46;89.75
45247;BME280;31529;51.158;7.354;2022-11-30T00:51:19;98376.53;;;9.46;90.64
45247;BME280;31529;51.158;7.354;2022-11-30T00:51:50;98381.88;;;9.46;90.25
45247;BME280;31529;51.158;7.354;2022-11-30T00:52:21;98373.88;;;9.46;90.12
45247;BME280;31529;51.158;7.354;2022-11-30T00:52:52;98381.88;;;9.46;90.06
45247;BME280;31529;51.158;7.354;2022-11-30T00:53:23;98382.66;;;9.46;90.13
45247;BME280;31529;51.158;7.354;2022-11-30T00:53:55;98378.16;;;9.47;90.33
45247;BME280;31529;51.158;7.354;2022-11-30T00:54:26;98380.81;;;9.47;89.87
45247;BME280;31529;51.158;7.354;2022-11-30T00:54:57;98377.31;;;9.46;90.46
45247;BME280;31529;51.158;7.354;2022-11-30T00:55:28;98382.66;;;9.46;89.87
45247;BME280;31529;51.158;7.354;2022-11-30T00:56:01;98375.50;;;9.47;89.59
45247;BME280;31529;51.158;7.354;2022-11-30T00:56:32;98379.72;;;9.48;90.25
45247;BME280;31529;51.158;7.354;2022-11-30T00:57:03;98379.72;;;9.48;89.96
45247;BME280;31529;51.158;7.354;2022-11-30T00:57:34;98381.34;;;9.49;90.19
45247;BME280;31529;51.158;7.354;2022-11-30T00:58:05;98376.00;;;9.49;89.91
45247;BME280;31529;51.158;7.354;2022-11-30T00:58:37;98379.47;;;9.49;89.73
45247;BME280;31529;51.158;7.354;2022-11-30T00:59:08;98372.28;;;9.50;89.86
45247;BME280;31529;51.158;7.354;2022-11-30T00:59:39;98372.28;;;9.50;90.26
45247;BME280;31529;51.158;7.354;2022-11-30T01:00:10;98373.88;;;9.51;90.19
45247;BME280;31529;51.158;7.354;2022-11-30T01:00:41;98375.47;;;9.52;90.16
45247;BME280;31529;51.158;7.354;2022-11-30T01:01:13;98372.00;;;9.51;90.41
45247;BME280;31529;51.158;7.354;2022-11-30T01:01:44;98375.47;;;9.52;89.83
45247;BME280;31529;51.158;7.354;2022-11-30T01:02:15;98379.75;;;9.53;90.14
45247;BME280;31529;51.158;7.354;2022-11-30T01:02:46;98370.66;;;9.54;90.31
45247;BME280;31529;51.158;7.354;2022-11-30T01:03:17;98377.63;;;9.55;90.11
45247;BME280;31529;51.158;7.354;2022-11-30T01:03:48;98381.06;;;9.55;89.50
45247;BME280;31529;51.158;7.354;2022-11-30T01:04:19;98370.66;;;9.54;89.49
45247;BME280;31529;51.158;7.354;2022-11-30T01:04:50;98374.94;;;9.55;90.27
45247;BME280;31529;51.158;7.354;2022-11-30T01:05:22;98380.28;;;9.55;90.08
45247;BME280;31529;51.158;7.354;2022-11-30T01:05:53;98374.94;;;9.55;89.40
45247;BME280;31529;51.158;7.354;2022-11-30T01:06:24;98373.34;;;9.54;89.86
45247;BME280;31529;51.158;7.354;2022-11-30T01:06:55;98369.88;;;9.53;90.25
45247;BME280;31529;51.158;7.354;2022-11-30T01:07:26;98381.31;;;9.54;89.93
45247;BME280;31529;51.158;7.354;2022-11-30T01:08:00;98377.06;;;9.53;89.80
45247;BME280;31529;51.158;7.354;2022-11-30T01:08:33;98382.41;;;9.53;89.80
45247;BME280;31529;51.158;7.354;2022-11-30T01:09:04;98382.66;;;9.51;89.47
45247;BME280;31529;51.158;7.354;2022-11-30T01:09:35;98387.72;;;9.53;90.36
45247;BME280;31529;51.158;7.354;2022-11-30T01:10:06;98377.34;;;9.51;89.89
45247;BME280;31529;51.158;7.354;2022-11-30T01:10:38;98381.88;;;9.51;89.76
45247;BME280;31529;51.158;7.354;2022-11-30T01:11:15;98378.38;;;9.50;89.68
45247;BME280;31529;51.158;7.354;2022-11-30T01:11:49;98379.22;;;9.51;89.90
45247;BME280;31529;51.158;7.354;2022-11-30T01:12:20;98385.34;;;9.51;89.80
45247;BME280;31529;51.158;7.354;2022-11-30T01:12:51;98378.38;;;9.50;89.99
45247;BME280;31529;51.158;7.354;2022-11-30T01:13:23;98380.00;;;9.51;90.33
45247;BME280;31529;51.158;7.354;2022-11-30T01:13:54;98378.38;;;9.50;90.24
45247;BME280;31529;51.158;7.354;2022-11-30T01:14:27;98381.88;;;9.51;89.61
45247;BME280;31529;51.158;7.354;2022-11-30T01:14:58;98385.34;;;9.51;90.15
45247;BME280;31529;51.158;7.354;2022-11-30T01:15:29;98276.09;;;8.85;89.82
45247;BME280;31529;51.158;7.354;2022-11-30T01:16:06;98384.53;;;9.51;89.80
45247;BME280;31529;51.158;7.354;2022-11-30T01:16:38;98379.22;;;9.51;89.76
45247;BME280;31529;51.158;7.354;2022-11-30T01:17:09;98377.34;;;9.51;89.69
45247;BME280;31529;51.158;7.354;2022-11-30T01:17:40;98380.00;;;9.51;89.60
45247;BME280;31529;51.158;7.354;2022-11-30T01:18:12;98385.06;;;9.53;89.64
45247;BME280;31529;51.158;7.354;2022-11-30T01:18:43;98380.78;;;9.52;90.31
45247;BME280;31529;51.158;7.354;2022-11-30T01:19:14;98378.13;;;9.52;90.03
45247;BME280;31529;51.158;7.354;2022-11-30T01:19:45;98382.41;;;9.53;90.23
45247;BME280;31529;51.158;7.354;2022-11-30T01:20:17;98387.72;;;9.53;90.32
45247;BME280;31529;51.158;7.354;2022-11-30T01:20:48;98385.06;;;9.53;90.14
45247;BME280;31529;51.158;7.354;2022-11-30T01:21:20;98382.41;;;9.53;90.14
45247;BME280;31529;51.158;7.354;2022-11-30T01:21:53;98385.06;;;9.53;90.46
45247;BME280;31529;51.158;7.354;2022-11-30T01:22:24;98386.66;;;9.54;90.32
45247;BME280;31529;51.158;7.354;2022-11-30T01:22:55;98382.41;;;9.53;89.92
45247;BME280;31529;51.158;7.354;2022-11-30T01:23:26;98385.88;;;9.53;89.90
45247;BME280;31529;51.158;7.354;2022-11-30T01:23:57;98379.75;;;9.53;89.91
45247;BME280;31529;51.158;7.354;2022-11-30T01:24:28;98378.66;;;9.54;90.37
45247;BME280;31529;51.158;7.354;2022-11-30T01:24:59;98383.19;;;9.53;90.05
45247;BME280;31529;51.158;7.354;2022-11-30T01:25:30;98379.47;;;9.54;90.01
45247;BME280;31529;51.158;7.354;2022-11-30T01:26:01;98384.00;;;9.54;90.31
45247;BME280;31529;51.158;7.354;2022-11-30T01:26:33;98386.66;;;9.54;89.60
45247;BME280;31529;51.158;7.354;2022-11-30T01:27:04;98379.47;;;9.54;90.30
45247;BME280;31529;51.158;7.354;2022-11-30T01:27:35;98382.16;;;9.54;89.98
45247;BME280;31529;51.158;7.354;2022-11-30T01:28:08;98379.75;;;9.53;90.28
45247;BME280;31529;51.158;7.354;2022-11-30T01:28:40;98380.28;;;9.55;90.21
45247;BME280;31529;51.158;7.354;2022-11-30T01:29:11;98384.00;;;9.54;89.74
45247;BME280;31529;51.158;7.354;2022-11-30T01:29:42;98387.72;;;9.53;90.08
45247;BME280;31529;51.158;7.354;2022-11-30T01:30:13;98380.28;;;9.55;89.98
45247;BME280;31529;51.158;7.354;2022-11-30T01:30:44;98376.81;;;9.54;90.39
45247;BME280;31529;51.158;7.354;2022-11-30T01:31:25;98376.00;;;9.54;89.49
45247;BME280;31529;51.158;7.354;2022-11-30T01:31:56;98373.34;;;9.54;90.27
45247;BME280;31529;51.158;7.354;2022-11-30T01:32:27;98382.41;;;9.53;89.75
45247;BME280;31529;51.158;7.354;2022-11-30T01:33:02;98386.94;;;9.52;89.76
45247;BME280;31529;51.158;7.354;2022-11-30T01:33:34;98382.41;;;9.53;90.01
45247;BME280;31529;51.158;7.354;2022-11-30T01:34:05;98376.00;;;9.54;90.48
45247;BME280;31529;51.158;7.354;2022-11-30T01:34:36;98382.41;;;9.53;90.62
45247;BME280;31529;51.158;7.354;2022-11-30T01:35:08;98389.31;;;9.54;90.14
45247;BME280;31529;51.158;7.354;2022-11-30T01:35:39;98378.66;;;9.54;89.88
45247;BME280;31529;51.158;7.354;2022-11-30T01:36:11;98384.00;;;9.54;90.44
45247;BME280;31529;51.158;7.354;2022-11-30T01:36:44;98386.66;;;9.54;90.20
45247;BME280;31529;51.158;7.354;2022-11-30T01:37:16;98378.66;;;9.54;89.57
45247;BME280;31529;51.158;7.354;2022-11-30T01:37:47;98384.00;;;9.54;89.86
45247;BME280;31529;51.158;7.354;2022-11-30T01:38:18;98376.81;;;9.54;89.99
45247;BME280;31529;51.158;7.354;2022-11-30T01:38:50;98376.00;;;9.54;90.00
45247;BME280;31529;51.158;7.354;2022-11-30T01:39:23;98377.88;;;9.53;89.50
45247;BME280;31529;51.158;7.354;2022-11-30T01:39:54;98375.22;;;9.53;90.54
45247;BME280;31529;51.158;7.354;2022-11-30T01:40:25;98376.81;;;9.54;89.67
45247;BME280;31529;51.158;7.354;2022-11-30T01:40:56;98374.16;;;9.54;89.64
45247;BME280;31529;51.158;7.354;2022-11-30T01:41:29;98373.34;;;9.54;89.99
45247;BME280;31529;51.158;7.354;2022-11-30T01:42:01;98376.00;;;9.54;90.39
45247;BME280;31529;51.158;7.354;2022-11-30T01:42:32;98379.19;;;9.56;90.32
45247;BME280;31529;51.158;7.354;2022-11-30T01:43:08;98379.47;;;9.54;89.90
45247;BME280;31529;51.158;7.354;2022-11-30T01:44:57;98382.94;;;9.55;90.05
45247;BME280;31529;51.158;7.354;2022-11-30T01:45:29;98380.28;;;9.55;90.15
45247;BME280;31529;51.158;7.354;2022-11-30T01:46:00;98381.31;;;9.54;89.81
45247;BME280;31529;51.158;7.354;2022-11-30T01:46:35;98378.66;;;9.54;89.54
45247;BME280;31529;51.158;7.354;2022-11-30T01:47:11;98378.66;;;9.54;90.04
45247;BME280;31529;51.158;7.354;2022-11-30T01:47:46;98379.47;;;9.54;90.45
45247;BME280;31529;51.158;7.354;2022-11-30T01:48:21;98384.81;;;9.54;90.27
45247;BME280;31529;51.158;7.354;2022-11-30T01:49:40;98382.94;;;9.55;90.31
45247;BME280;31529;51.158;7.354;2022-11-30T01:50:16;98389.31;;;9.54;90.27
45247;BME280;31529;51.158;7.354;2022-11-30T01:50:52;98382.41;;;9.53;89.96
45247;BME280;31529;51.158;7.354;2022-11-30T01:51:24;98378.13;;;9.52;89.76
45247;BME280;31529;51.158;7.354;2022-11-30T01:52:33;98377.06;;;9.53;89.70
45247;BME280;31529;51.158;7.354;2022-11-30T01:53:02;98383.47;;;9.52;90.33
45247;BME280;31529;51.158;7.354;2022-11-30T01:53:35;98379.22;;;9.51;90.08
45247;BME280;31529;51.158;7.354;2022-11-30T01:54:07;98384.53;;;9.51;90.28
45247;BME280;31529;51.158;7.354;2022-11-30T01:54:41;98377.59;;;9.50;90.46
45247;BME280;31529;51.158;7.354;2022-11-30T01:55:19;98381.06;;;9.50;89.87
45247;BME280;31529;51.158;7.354;2022-11-30T01:55:53;98382.94;;;9.50;90.56
45247;BME280;31529;51.158;7.354;2022-11-30T01:56:25;98384.00;;;9.49;90.13
45247;BME280;31529;51.158;7.354;2022-11-30T01:56:58;98378.69;;;9.49;90.21
45247;BME280;31529;51.158;7.354;2022-11-30T01:58:11;98277.44;;;8.82;89.92
45247;BME280;31529;51.158;7.354;2022-11-30T01:58:46;98380.00;;;9.46;90.17
45247;BME280;31529;51.158;7.354;2022-11-30T01:59:18;98382.66;;;9.46;89.94
45247;BME280;31529;51.158;7.354;2022-11-30T01:59:52;98382.94;;;9.45;89.87
45247;BME280;31529;51.158;7.354;2022-11-30T02:00:26;98381.34;;;9.44;89.87
45247;BME280;31529;51.158;7.354;2022-11-30T02:00:58;98385.59;;;9.45;90.21
45247;BME280;31529;51.158;7.354;2022-11-30T02:01:29;98385.59;;;9.45;89.86
45247;BME280;31529;51.158;7.354;2022-11-30T02:02:00;98385.59;;;9.45;90.00
45247;BME280;31529;51.158;7.354;2022-11-30T02:02:36;98384.78;;;9.44;89.76
45247;BME280;31529;51.158;7.354;2022-11-30T02:03:21;98379.47;;;9.44;89.81
45247;BME280;31529;51.158;7.354;2022-11-30T02:04:05;98384.78;;;9.44;89.87
45247;BME280;31529;51.158;7.354;2022-11-30T02:04:45;98378.66;;;9.44;90.31
45247;BME280;31529;51.158;7.354;2022-11-30T02:05:16;98384.00;;;9.44;90.49
45247;BME280;31529;51.158;7.354;2022-11-30T02:05:48;98381.34;;;9.44;90.64
45247;BME280;31529;51.158;7.354;2022-11-30T02:06:19;98384.00;;;9.44;89.96
45247;BME280;31529;51.158;7.354;2022-11-30T02:06:51;98380.53;;;9.43;90.69
45247;BME280;31529;51.158;7.354;2022-11-30T02:07:22;98382.38;;;9.43;90.15
45247;BME280;31529;51.158;7.354;2022-11-30T02:07:53;98385.88;;;9.43;90.60
45247;BME280;31529;51.158;7.354;2022-11-30T02:08:24;98381.59;;;9.42;90.73
45247;BME280;31529;51.158;7.354;2022-11-30T02:08:57;98380.81;;;9.42;90.72
45247;BME280;31529;51.158;7.354;2022-11-30T02:09:29;98383.47;;;9.42;90.50
45247;BME280;31529;51.158;7.354;2022-11-30T02:10:05;98378.13;;;9.42;90.68
45247;BME280;31529;51.158;7.354;2022-11-30T02:10:37;98373.84;;;9.41;89.82
45247;BME280;31529;51.158;7.354;2022-11-30T02:11:12;98379.19;;;9.41;90.30
45247;BME280;31529;51.158;7.354;2022-11-30T02:11:45;98379.19;;;9.41;90.36
45247;BME280;31529;51.158;7.354;2022-11-30T02:12:20;98379.19;;;9.41;90.11
45247;BME280;31529;51.158;7.354;2022-11-30T02:14:32;98377.88;;;9.38;90.74
45247;BME280;31529;51.158;7.354;2022-11-30T02:15:10;98372.00;;;9.36;90.15
45247;BME280;31529;51.158;7.354;2022-11-30T02:17:33;98380.25;;;9.34;90.56
45247;BME280;31529;51.158;7.354;2022-11-30T02:18:14;98352.56;;;9.20;91.10
45247;BME280;31529;51.158;7.354;2022-11-30T02:19:36;98367.19;;;9.33;90.48
45247;BME280;31529;51.158;7.354;2022-11-30T02:20:17;98367.19;;;9.33;90.31
45247;BME280;31529;51.158;7.354;2022-11-30T02:22:14;98377.06;;;9.32;90.96
45247;BME280;31529;51.158;7.354;2022-11-30T02:24:41;98380.78;;;9.31;90.42
45247;BME280;31529;51.158;7.354;2022-11-30T02:28:17;98376.53;;;9.30;91.19
45247;BME280;31529;51.158;7.354;2022-11-30T02:29:15;98379.19;;;9.30;91.15
45247;BME280;31529;51.158;7.354;2022-11-30T02:30:33;98378.09;;;9.31;91.45
45247;BME280;31529;51.158;7.354;2022-11-30T02:31:10;98373.84;;;9.30;91.09
45247;BME280;31529;51.158;7.354;2022-11-30T02:32:33;98378.66;;;9.33;91.42
45247;BME280;31529;51.158;7.354;2022-11-30T02:33:11;98374.94;;;9.34;90.97
45247;BME280;31529;51.158;7.354;2022-11-30T02:33:45;98374.94;;;9.34;90.55
45247;BME280;31529;51.158;7.354;2022-11-30T02:34:20;98370.38;;;9.35;90.64
45247;BME280;31529;51.158;7.354;2022-11-30T02:34:55;98372.78;;;9.36;90.55
45247;BME280;31529;51.158;7.354;2022-11-30T02:35:29;98381.56;;;9.37;90.68
45247;BME280;31529;51.158;7.354;2022-11-30T02:36:05;98374.66;;;9.36;90.88
45247;BME280;31529;51.158;7.354;2022-11-30T02:36:37;98372.00;;;9.36;90.71
45247;BME280;31529;51.158;7.354;2022-11-30T02:37:09;98375.47;;;9.36;90.40
45247;BME280;31529;51.158;7.354;2022-11-30T02:37:43;98375.72;;;9.35;91.00
45247;BME280;31529;51.158;7.354;2022-11-30T02:38:17;98378.38;;;9.35;90.38
45247;BME280;31529;51.158;7.354;2022-11-30T02:38:50;98374.13;;;9.34;90.47
45247;BME280;31529;51.158;7.354;2022-11-30T02:39:21;98376.00;;;9.33;90.56
45247;BME280;31529;51.158;7.354;2022-11-30T02:39:53;98374.13;;;9.34;90.70
45247;BME280;31529;51.158;7.354;2022-11-30T02:40:24;98376.78;;;9.34;90.31
45247;BME280;31529;51.158;7.354;2022-11-30T02:40:55;98370.69;;;9.33;90.85
45247;BME280;31529;51.158;7.354;2022-11-30T02:41:33;98371.72;;;9.32;90.55
45247;BME280;31529;51.158;7.354;2022-11-30T02:42:09;98368.53;;;9.30;91.22
45247;BME280;31529;51.158;7.354;2022-11-30T02:42:42;98366.41;;;9.32;91.27
45247;BME280;31529;51.158;7.354;2022-11-30T02:43:13;98365.63;;;9.32;90.38
45247;BME280;31529;51.158;7.354;2022-11-30T02:43:45;98368.53;;;9.30;91.12
45247;BME280;31529;51.158;7.354;2022-11-30T02:44:17;98368.53;;;9.30;91.04
45247;BME280;31529;51.158;7.354;2022-11-30T02:44:53;98367.75;;;9.30;90.56
45247;BME280;31529;51.158;7.354;2022-11-30T02:45:28;98360.00;;;9.28;90.84
45247;BME280;31529;51.158;7.354;2022-11-30T02:46:15;98365.59;;;9.27;91.27
45247;BME280;31529;51.158;7.354;2022-11-30T02:47:26;98372.78;;;9.26;90.71
45247;BME280;31529;51.158;7.354;2022-11-30T02:47:54;98368.50;;;9.25;91.05
45247;BME280;31529;51.158;7.354;2022-11-30T02:48:42;98368.50;;;9.25;90.88
45247;BME280;31529;51.158;7.354;2022-11-30T02:50:03;98374.38;;;9.27;90.80
45247;BME280;31529;51.158;7.354;2022-11-30T02:50:43;98366.38;;;9.27;91.18
45247;BME280;31529;51.158;7.354;2022-11-30T02:51:19;98368.00;;;9.28;91.15
45247;BME280;31529;51.158;7.354;2022-11-30T02:51:54;98370.66;;;9.28;91.73
45247;BME280;31529;51.158;7.354;2022-11-30T02:52:28;98366.91;;;9.29;91.56
45247;BME280;31529;51.158;7.354;2022-11-30T02:53:01;98372.25;;;9.29;91.44
45247;BME280;31529;51.158;7.354;2022-11-30T02:53:33;98371.47;;;9.29;90.56
45247;BME280;31529;51.158;7.354;2022-11-30T02:54:04;98368.78;;;9.29;90.81
45247;BME280;31529;51.158;7.354;2022-11-30T02:54:35;98371.47;;;9.29;90.94
45247;BME280;31529;51.158;7.354;2022-11-30T02:55:07;98366.13;;;9.29;91.50
45247;BME280;31529;51.158;7.354;2022-11-30T02:55:43;98373.31;;;9.28;91.13
45247;BME280;31529;51.158;7.354;2022-11-30T02:56:14;98373.31;;;9.28;90.99
45247;BME280;31529;51.158;7.354;2022-11-30T02:56:47;98372.53;;;9.28;91.10
45247;BME280;31529;51.158;7.354;2022-11-30T02:57:18;98370.66;;;9.28;90.77
45247;BME280;31529;51.158;7.354;2022-11-30T02:57:49;98373.31;;;9.28;90.82
45247;BME280;31529;51.158;7.354;2022-11-30T02:58:20;98363.72;;;9.27;90.91
45247;BME280;31529;51.158;7.354;2022-11-30T02:58:52;98370.66;;;9.28;91.11
45247;BME280;31529;51.158;7.354;2022-11-30T02:59:23;98372.25;;;9.29;91.00
45247;BME280;31529;51.158;7.354;2022-11-30T02:59:54;98373.06;;;9.30;91.53
45247;BME280;31529;51.158;7.354;2022-11-30T03:00:26;98369.31;;;9.31;91.17
45247;BME280;31529;51.158;7.354;2022-11-30T03:00:57;98370.13;;;9.31;91.53
45247;BME280;31529;51.158;7.354;2022-11-30T03:01:28;98369.06;;;9.32;91.07
45247;BME280;31529;51.158;7.354;2022-11-30T03:01:59;98370.69;;;9.33;91.06
45247;BME280;31529;51.158;7.354;2022-11-30T03:02:30;98374.13;;;9.34;90.95
45247;BME280;31529;51.158;7.354;2022-11-30T03:03:01;98367.72;;;9.35;91.77
45247;BME280;31529;51.158;7.354;2022-11-30T03:03:33;98366.69;;;9.36;91.20
45247;BME280;31529;51.158;7.354;2022-11-30T03:04:04;98362.13;;;9.36;90.90
45247;BME280;31529;51.158;7.354;2022-11-30T03:04:35;98366.69;;;9.36;90.95
45247;BME280;31529;51.158;7.354;2022-11-30T03:05:07;98364.53;;;9.38;91.09
45247;BME280;31529;51.158;7.354;2022-11-30T03:05:38;98364.53;;;9.38;90.63
45247;BME280;31529;51.158;7.354;2022-11-30T03:06:09;98361.88;;;9.38;91.16
45247;BME280;31529;51.158;7.354;2022-11-30T03:06:40;98363.75;;;9.37;90.61
45247;BME280;31529;51.158;7.354;2022-11-30T03:07:11;98366.41;;;9.37;90.64
45247;BME280;31529;51.158;7.354;2022-11-30T03:07:42;98362.94;;;9.37;90.78
45247;BME280;31529;51.158;7.354;2022-11-30T03:08:14;98362.94;;;9.37;90.90
45247;BME280;31529;51.158;7.354;2022-11-30T03:08:45;98367.47;;;9.36;91.12
45247;BME280;31529;51.158;7.354;2022-11-30T03:09:16;98367.72;;;9.35;90.65
45247;BME280;31529;51.158;7.354;2022-11-30T03:09:47;98360.03;;;9.33;90.58
45247;BME280;31529;51.158;7.354;2022-11-30T03:10:18;98363.47;;;9.34;90.47
45247;BME280;31529;51.158;7.354;2022-11-30T03:10:49;98369.59;;;9.34;91.11